sensor_id;sensor_type;location;lat;lon;timestamp;temperature;humidity
42421;DHT22;28063;48.140;11.588;2023-03-01T00:01:58;1.50;93.20
42421;DHT22;28063;48.140;11.588;2023-03-01T00:04:24;1.50;93.20
42421;DHT22;28063;48.140;11.588;2023-03-01T00:06:50;1.50;93.00
42421;DHT22;28063;48.140;11.588;2023-03-01T00:09:17;1.50;93.20
42421;DHT22;28063;48.140;11.588;2023-03-01T00:11:43;1.50;93.20
42421;DHT22;28063;48.140;11.588;2023-03-01T00:14:09;1.50;93.20
42421;DHT22;28063;48.140;11.588;2023-03-01T00:16:40;1.50;93.30
42421;DHT22;28063;48.140;11.588;2023-03-01T00:19:07;1.50;93.30
42421;DHT22;28063;48.140;11.588;2023-03-01T00:21:35;1.40;93.40
42421;DHT22;28063;48.140;11.588;2023-03-01T00:24:01;1.40;93.50
42421;DHT22;28063;48.140;11.588;2023-03-01T00:26:27;1.50;93.60
42421;DHT22;28063;48.140;11.588;2023-03-01T00:28:53;1.50;93.50
42421;DHT22;28063;48.140;11.588;2023-03-01T00:31:25;1.50;93.50
42421;DHT22;28063;48.140;11.588;2023-03-01T00:33:56;1.50;93.60
42421;DHT22;28063;48.140;11.588;2023-03-01T00:36:24;1.50;93.70
42421;DHT22;28063;48.140;11.588;2023-03-01T00:38:50;1.50;93.70
42421;DHT22;28063;48.140;11.588;2023-03-01T00:41:17;1.50;93.70
42421;DHT22;28063;48.140;11.588;2023-03-01T00:43:44;1.50;93.60
42421;DHT22;28063;48.140;11.588;2023-03-01T00:46:12;1.50;93.60
42421;DHT22;28063;48.140;11.588;2023-03-01T00:48:39;1.40;93.60
42421;DHT22;28063;48.140;11.588;2023-03-01T00:51:07;1.40;93.70
42421;DHT22;28063;48.140;11.588;2023-03-01T00:53:33;1.40;93.80
42421;DHT22;28063;48.140;11.588;2023-03-01T00:55:59;1.40;93.80
42421;DHT22;28063;48.140;11.588;2023-03-01T00:58:26;1.40;93.70
42421;DHT22;28063;48.140;11.588;2023-03-01T01:00:51;1.40;93.70
42421;DHT22;28063;48.140;11.588;2023-03-01T01:03:21;1.40;93.60
42421;DHT22;28063;48.140;11.588;2023-03-01T01:05:47;1.40;93.50
42421;DHT22;28063;48.140;11.588;2023-03-01T01:08:12;1.30;93.60
42421;DHT22;28063;48.140;11.588;2023-03-01T01:10:38;1.30;93.70
42421;DHT22;28063;48.140;11.588;2023-03-01T01:13:04;1.30;93.70
42421;DHT22;28063;48.140;11.588;2023-03-01T01:15:33;1.40;93.80
42421;DHT22;28063;48.140;11.588;2023-03-01T01:18:00;1.40;93.80
42421;DHT22;28063;48.140;11.588;2023-03-01T01:20:26;1.40;93.80
42421;DHT22;28063;48.140;11.588;2023-03-01T01:22:51;1.40;93.80
42421;DHT22;28063;48.140;11.588;2023-03-01T01:25:18;1.30;93.70
42421;DHT22;28063;48.140;11.588;2023-03-01T01:27:43;1.30;93.70
42421;DHT22;28063;48.140;11.588;2023-03-01T01:30:09;1.30;93.60
42421;DHT22;28063;48.140;11.588;2023-03-01T01:32:35;1.30;93.70
42421;DHT22;28063;48.140;11.588;2023-03-01T01:35:01;1.30;93.70
42421;DHT22;28063;48.140;11.588;2023-03-01T01:37:27;1.30;93.70
42421;DHT22;28063;48.140;11.588;2023-03-01T01:40:00;1.40;93.90
42421;DHT22;28063;48.140;11.588;2023-03-01T01:42:28;1.40;93.80
42421;DHT22;28063;48.140;11.588;2023-03-01T01:47:50;1.30;93.50
42421;DHT22;28063;48.140;11.588;2023-03-01T01:50:18;1.30;93.70
42421;DHT22;28063;48.140;11.588;2023-03-01T01:52:45;1.30;93.70
42421;DHT22;28063;48.140;11.588;2023-03-01T01:55:15;1.30;93.70
42421;DHT22;28063;48.140;11.588;2023-03-01T01:57:45;1.30;93.70
42421;DHT22;28063;48.140;11.588;2023-03-01T02:02:46;1.30;93.90
42421;DHT22;28063;48.140;11.588;2023-03-01T02:08:06;1.30;93.70
42421;DHT22;28063;48.140;11.588;2023-03-01T02:10:34;1.30;93.70
42421;DHT22;28063;48.140;11.588;2023-03-01T02:13:02;1.30;93.70
42421;DHT22;28063;48.140;11.588;2023-03-01T02:15:32;1.30;93.80
42421;DHT22;28063;48.140;11.588;2023-03-01T02:17:58;1.30;93.70
42421;DHT22;28063;48.140;11.588;2023-03-01T02:20:35;1.20;93.70
42421;DHT22;28063;48.140;11.588;2023-03-01T02:23:07;1.30;93.90
42421;DHT22;28063;48.140;11.588;2023-03-01T02:25:58;1.30;93.70
42421;DHT22;28063;48.140;11.588;2023-03-01T02:30:55;1.20;93.90
42421;DHT22;28063;48.140;11.588;2023-03-01T02:33:40;1.20;93.90
42421;DHT22;28063;48.140;11.588;2023-03-01T02:36:14;1.20;93.70
42421;DHT22;28063;48.140;11.588;2023-03-01T02:38:42;1.20;93.70
42421;DHT22;28063;48.140;11.588;2023-03-01T02:41:08;1.20;93.90
42421;DHT22;28063;48.140;11.588;2023-03-01T02:43:37;1.20;93.90
42421;DHT22;28063;48.140;11.588;2023-03-01T02:46:12;1.10;94.00
42421;DHT22;28063;48.140;11.588;2023-03-01T02:48:44;1.10;93.90
42421;DHT22;28063;48.140;11.588;2023-03-01T02:54:24;1.10;93.80
42421;DHT22;28063;48.140;11.588;2023-03-01T02:56:51;1.10;94.10
42421;DHT22;28063;48.140;11.588;2023-03-01T02:59:20;1.10;94.20
42421;DHT22;28063;48.140;11.588;2023-03-01T03:01:46;1.00;94.20
42421;DHT22;28063;48.140;11.588;2023-03-01T03:04:15;1.00;94.10
42421;DHT22;28063;48.140;11.588;2023-03-01T03:06:46;1.00;94.10
42421;DHT22;28063;48.140;11.588;2023-03-01T03:09:13;1.00;94.10
42421;DHT22;28063;48.140;11.588;2023-03-01T03:11:38;1.00;94.00
42421;DHT22;28063;48.140;11.588;2023-03-01T03:14:09;1.00;94.10
42421;DHT22;28063;48.140;11.588;2023-03-01T03:16:41;1.00;94.10
42421;DHT22;28063;48.140;11.588;2023-03-01T03:19:06;1.00;93.70
42421;DHT22;28063;48.140;11.588;2023-03-01T03:21:32;1.00;93.80
42421;DHT22;28063;48.140;11.588;2023-03-01T03:23:58;1.00;93.60
42421;DHT22;28063;48.140;11.588;2023-03-01T03:26:24;0.90;93.60
42421;DHT22;28063;48.140;11.588;2023-03-01T03:28:50;0.90;93.90
42421;DHT22;28063;48.140;11.588;2023-03-01T03:31:15;1.00;94.00
42421;DHT22;28063;48.140;11.588;2023-03-01T03:33:41;1.00;93.60
42421;DHT22;28063;48.140;11.588;2023-03-01T03:36:07;1.00;93.30
42421;DHT22;28063;48.140;11.588;2023-03-01T03:38:39;0.90;93.50
42421;DHT22;28063;48.140;11.588;2023-03-01T03:41:07;0.90;93.70
42421;DHT22;28063;48.140;11.588;2023-03-01T03:43:35;0.90;93.80
42421;DHT22;28063;48.140;11.588;2023-03-01T03:46:02;0.90;93.80
42421;DHT22;28063;48.140;11.588;2023-03-01T03:48:33;0.90;93.60
42421;DHT22;28063;48.140;11.588;2023-03-01T03:50:58;0.90;93.70
42421;DHT22;28063;48.140;11.588;2023-03-01T03:53:26;0.80;93.70
42421;DHT22;28063;48.140;11.588;2023-03-01T03:55:53;0.80;93.80
42421;DHT22;28063;48.140;11.588;2023-03-01T03:58:21;0.90;93.90
42421;DHT22;28063;48.140;11.588;2023-03-01T04:00:49;0.90;93.30
42421;DHT22;28063;48.140;11.588;2023-03-01T04:03:16;0.90;93.20
42421;DHT22;28063;48.140;11.588;2023-03-01T04:05:44;0.80;93.30
42421;DHT22;28063;48.140;11.588;2023-03-01T04:08:11;0.80;93.50
42421;DHT22;28063;48.140;11.588;2023-03-01T04:10:44;0.80;93.30
42421;DHT22;28063;48.140;11.588;2023-03-01T04:13:13;0.70;93.40
42421;DHT22;28063;48.140;11.588;2023-03-01T04:15:39;0.70;93.50
42421;DHT22;28063;48.140;11.588;2023-03-01T04:18:06;0.70;93.50
42421;DHT22;28063;48.140;11.588;2023-03-01T04:20:34;0.70;93.60
42421;DHT22;28063;48.140;11.588;2023-03-01T04:23:20;0.70;93.60
42421;DHT22;28063;48.140;11.588;2023-03-01T04:28:32;0.70;93.20
42421;DHT22;28063;48.140;11.588;2023-03-01T04:31:03;0.60;93.40
42421;DHT22;28063;48.140;11.588;2023-03-01T04:33:49;0.60;93.20
42421;DHT22;28063;48.140;11.588;2023-03-01T04:36:19;0.60;93.30
42421;DHT22;28063;48.140;11.588;2023-03-01T04:38:45;0.50;93.30
42421;DHT22;28063;48.140;11.588;2023-03-01T04:41:15;0.50;93.40
42421;DHT22;28063;48.140;11.588;2023-03-01T04:43:41;0.50;93.50
42421;DHT22;28063;48.140;11.588;2023-03-01T04:46:09;0.60;93.60
42421;DHT22;28063;48.140;11.588;2023-03-01T04:48:39;0.60;93.60
42421;DHT22;28063;48.140;11.588;2023-03-01T04:51:05;0.50;93.60
42421;DHT22;28063;48.140;11.588;2023-03-01T04:53:32;0.50;93.50
42421;DHT22;28063;48.140;11.588;2023-03-01T04:55:58;0.50;93.70
42421;DHT22;28063;48.140;11.588;2023-03-01T04:58:26;0.50;93.90
42421;DHT22;28063;48.140;11.588;2023-03-01T05:00:52;0.50;94.10
42421;DHT22;28063;48.140;11.588;2023-03-01T05:03:19;0.50;94.00
42421;DHT22;28063;48.140;11.588;2023-03-01T05:05:46;0.40;94.00
42421;DHT22;28063;48.140;11.588;2023-03-01T05:08:13;0.40;94.00
42421;DHT22;28063;48.140;11.588;2023-03-01T05:10:45;0.30;94.10
42421;DHT22;28063;48.140;11.588;2023-03-01T05:13:12;0.20;94.10
42421;DHT22;28063;48.140;11.588;2023-03-01T05:15:57;0.20;94.20
42421;DHT22;28063;48.140;11.588;2023-03-01T05:18:24;0.20;94.30
42421;DHT22;28063;48.140;11.588;2023-03-01T05:21:02;0.10;94.40
42421;DHT22;28063;48.140;11.588;2023-03-01T05:23:30;0.10;94.40
42421;DHT22;28063;48.140;11.588;2023-03-01T05:26:01;0.10;94.60
42421;DHT22;28063;48.140;11.588;2023-03-01T05:28:28;0.10;94.70
42421;DHT22;28063;48.140;11.588;2023-03-01T05:30:54;0.10;94.40
42421;DHT22;28063;48.140;11.588;2023-03-01T05:33:20;0.10;94.30
42421;DHT22;28063;48.140;11.588;2023-03-01T05:35:48;0.00;94.30
42421;DHT22;28063;48.140;11.588;2023-03-01T05:38:14;0.00;94.40
42421;DHT22;28063;48.140;11.588;2023-03-01T05:40:42;0.00;94.40
42421;DHT22;28063;48.140;11.588;2023-03-01T05:43:09;0.00;94.50
42421;DHT22;28063;48.140;11.588;2023-03-01T05:45:37;-0.10;94.60
42421;DHT22;28063;48.140;11.588;2023-03-01T05:48:04;0.00;94.70
42421;DHT22;28063;48.140;11.588;2023-03-01T05:50:36;-0.10;94.70
42421;DHT22;28063;48.140;11.588;2023-03-01T05:53:06;-0.10;94.90
42421;DHT22;28063;48.140;11.588;2023-03-01T05:55:34;-0.10;94.50
42421;DHT22;28063;48.140;11.588;2023-03-01T05:58:05;-0.10;94.60
42421;DHT22;28063;48.140;11.588;2023-03-01T06:00:32;-0.10;94.60
42421;DHT22;28063;48.140;11.588;2023-03-01T06:02:59;-0.10;94.60
42421;DHT22;28063;48.140;11.588;2023-03-01T06:05:26;-0.10;94.60
42421;DHT22;28063;48.140;11.588;2023-03-01T06:07:52;-0.10;94.60
42421;DHT22;28063;48.140;11.588;2023-03-01T06:10:20;-0.10;94.60
42421;DHT22;28063;48.140;11.588;2023-03-01T06:12:46;-0.10;94.50
42421;DHT22;28063;48.140;11.588;2023-03-01T06:15:14;-0.10;94.40
42421;DHT22;28063;48.140;11.588;2023-03-01T06:17:42;-0.10;94.60
42421;DHT22;28063;48.140;11.588;2023-03-01T06:22:43;0.00;95.00
42421;DHT22;28063;48.140;11.588;2023-03-01T06:25:09;0.00;94.70
42421;DHT22;28063;48.140;11.588;2023-03-01T06:27:35;0.10;94.80
42421;DHT22;28063;48.140;11.588;2023-03-01T06:30:01;0.10;94.50
42421;DHT22;28063;48.140;11.588;2023-03-01T06:32:27;0.10;94.40
42421;DHT22;28063;48.140;11.588;2023-03-01T06:34:52;0.20;94.60
42421;DHT22;28063;48.140;11.588;2023-03-01T06:37:18;0.20;94.40
42421;DHT22;28063;48.140;11.588;2023-03-01T06:39:44;0.20;94.20
42421;DHT22;28063;48.140;11.588;2023-03-01T06:42:10;0.20;94.00
42421;DHT22;28063;48.140;11.588;2023-03-01T06:44:36;0.10;93.90
42421;DHT22;28063;48.140;11.588;2023-03-01T06:47:02;0.10;93.80
42421;DHT22;28063;48.140;11.588;2023-03-01T06:49:28;0.10;94.00
42421;DHT22;28063;48.140;11.588;2023-03-01T06:51:54;0.10;94.10
42421;DHT22;28063;48.140;11.588;2023-03-01T06:54:20;0.10;94.20
42421;DHT22;28063;48.140;11.588;2023-03-01T06:56:48;0.20;94.30
42421;DHT22;28063;48.140;11.588;2023-03-01T06:59:15;0.20;94.20
42421;DHT22;28063;48.140;11.588;2023-03-01T07:01:40;0.20;94.00
42421;DHT22;28063;48.140;11.588;2023-03-01T07:04:06;0.20;94.00
42421;DHT22;28063;48.140;11.588;2023-03-01T07:06:32;0.30;93.80
42421;DHT22;28063;48.140;11.588;2023-03-01T07:08:58;0.30;93.70
42421;DHT22;28063;48.140;11.588;2023-03-01T07:11:23;0.30;93.80
42421;DHT22;28063;48.140;11.588;2023-03-01T07:13:49;0.30;93.90
42421;DHT22;28063;48.140;11.588;2023-03-01T07:16:15;0.40;94.00
42421;DHT22;28063;48.140;11.588;2023-03-01T07:18:41;0.50;93.80
42421;DHT22;28063;48.140;11.588;2023-03-01T07:21:08;0.50;93.50
42421;DHT22;28063;48.140;11.588;2023-03-01T07:23:34;0.50;93.40
42421;DHT22;28063;48.140;11.588;2023-03-01T07:26:01;0.50;93.20
42421;DHT22;28063;48.140;11.588;2023-03-01T07:28:27;0.50;93.30
42421;DHT22;28063;48.140;11.588;2023-03-01T07:30:53;0.50;93.30
42421;DHT22;28063;48.140;11.588;2023-03-01T07:33:18;0.60;93.30
42421;DHT22;28063;48.140;11.588;2023-03-01T07:35:44;0.60;93.30
42421;DHT22;28063;48.140;11.588;2023-03-01T07:38:10;0.60;93.20
42421;DHT22;28063;48.140;11.588;2023-03-01T07:40:36;0.60;93.30
42421;DHT22;28063;48.140;11.588;2023-03-01T07:43:02;0.70;93.40
42421;DHT22;28063;48.140;11.588;2023-03-01T07:45:30;0.80;93.50
42421;DHT22;28063;48.140;11.588;2023-03-01T07:47:57;0.90;93.20
42421;DHT22;28063;48.140;11.588;2023-03-01T07:50:23;1.10;93.20
42421;DHT22;28063;48.140;11.588;2023-03-01T07:52:49;1.20;92.90
42421;DHT22;28063;48.140;11.588;2023-03-01T07:55:16;1.30;92.80
42421;DHT22;28063;48.140;11.588;2023-03-01T07:57:42;1.50;92.50
42421;DHT22;28063;48.140;11.588;2023-03-01T08:00:10;1.40;91.90
42421;DHT22;28063;48.140;11.588;2023-03-01T08:02:36;1.40;91.50
42421;DHT22;28063;48.140;11.588;2023-03-01T08:05:01;1.30;91.10
42421;DHT22;28063;48.140;11.588;2023-03-01T08:07:27;1.30;91.50
42421;DHT22;28063;48.140;11.588;2023-03-01T08:09:53;1.40;91.80
42421;DHT22;28063;48.140;11.588;2023-03-01T08:12:18;1.50;91.00
42421;DHT22;28063;48.140;11.588;2023-03-01T08:14:44;1.40;90.50
42421;DHT22;28063;48.140;11.588;2023-03-01T08:17:10;1.30;90.90
42421;DHT22;28063;48.140;11.588;2023-03-01T08:19:36;1.30;90.90
42421;DHT22;28063;48.140;11.588;2023-03-01T08:22:02;1.30;91.20
42421;DHT22;28063;48.140;11.588;2023-03-01T08:24:28;1.40;91.10
42421;DHT22;28063;48.140;11.588;2023-03-01T08:26:54;1.40;90.50
42421;DHT22;28063;48.140;11.588;2023-03-01T08:29:20;1.40;90.60
42421;DHT22;28063;48.140;11.588;2023-03-01T08:31:46;1.50;90.30
42421;DHT22;28063;48.140;11.588;2023-03-01T08:34:15;1.50;90.30
42421;DHT22;28063;48.140;11.588;2023-03-01T08:36:43;1.60;90.40
42421;DHT22;28063;48.140;11.588;2023-03-01T08:39:12;1.60;90.30
42421;DHT22;28063;48.140;11.588;2023-03-01T08:41:38;1.60;90.30
42421;DHT22;28063;48.140;11.588;2023-03-01T08:44:04;1.70;90.30
42421;DHT22;28063;48.140;11.588;2023-03-01T08:46:33;1.60;90.10
42421;DHT22;28063;48.140;11.588;2023-03-01T08:48:59;1.60;90.10
42421;DHT22;28063;48.140;11.588;2023-03-01T08:51:26;1.70;89.50
42421;DHT22;28063;48.140;11.588;2023-03-01T08:53:52;1.80;90.00
42421;DHT22;28063;48.140;11.588;2023-03-01T08:56:18;1.90;90.10
42421;DHT22;28063;48.140;11.588;2023-03-01T08:58:46;2.10;90.20
42421;DHT22;28063;48.140;11.588;2023-03-01T09:01:15;2.30;90.00
42421;DHT22;28063;48.140;11.588;2023-03-01T09:03:42;2.50;89.30
42421;DHT22;28063;48.140;11.588;2023-03-01T09:06:08;2.70;89.00
42421;DHT22;28063;48.140;11.588;2023-03-01T09:08:36;2.60;86.50
42421;DHT22;28063;48.140;11.588;2023-03-01T09:11:04;2.50;86.40
42421;DHT22;28063;48.140;11.588;2023-03-01T09:13:29;2.50;86.60
42421;DHT22;28063;48.140;11.588;2023-03-01T09:15:57;2.50;87.60
42421;DHT22;28063;48.140;11.588;2023-03-01T09:18:23;2.60;87.20
42421;DHT22;28063;48.140;11.588;2023-03-01T09:20:49;2.60;86.80
42421;DHT22;28063;48.140;11.588;2023-03-01T09:23:14;2.60;86.90
42421;DHT22;28063;48.140;11.588;2023-03-01T09:25:40;2.70;87.20
42421;DHT22;28063;48.140;11.588;2023-03-01T09:28:06;2.70;86.00
42421;DHT22;28063;48.140;11.588;2023-03-01T09:30:32;2.70;86.20
42421;DHT22;28063;48.140;11.588;2023-03-01T09:32:57;2.70;86.00
42421;DHT22;28063;48.140;11.588;2023-03-01T09:35:23;2.70;85.40
42421;DHT22;28063;48.140;11.588;2023-03-01T09:37:49;2.80;86.10
42421;DHT22;28063;48.140;11.588;2023-03-01T09:40:21;2.80;85.90
42421;DHT22;28063;48.140;11.588;2023-03-01T09:43:01;2.90;86.30
42421;DHT22;28063;48.140;11.588;2023-03-01T09:45:37;3.00;85.80
42421;DHT22;28063;48.140;11.588;2023-03-01T09:48:07;3.00;84.80
42421;DHT22;28063;48.140;11.588;2023-03-01T09:50:39;2.90;84.70
42421;DHT22;28063;48.140;11.588;2023-03-01T09:53:16;2.90;84.50
42421;DHT22;28063;48.140;11.588;2023-03-01T10:01:23;3.40;84.30
42421;DHT22;28063;48.140;11.588;2023-03-01T10:07:10;3.50;83.50
42421;DHT22;28063;48.140;11.588;2023-03-01T10:09:41;3.60;83.90
42421;DHT22;28063;48.140;11.588;2023-03-01T10:12:24;3.80;83.20
42421;DHT22;28063;48.140;11.588;2023-03-01T10:17:39;3.80;82.90
42421;DHT22;28063;48.140;11.588;2023-03-01T10:20:25;3.60;81.60
42421;DHT22;28063;48.140;11.588;2023-03-01T10:22:52;3.50;81.10
42421;DHT22;28063;48.140;11.588;2023-03-01T10:30:42;3.20;83.80
42421;DHT22;28063;48.140;11.588;2023-03-01T10:33:23;3.20;84.50
42421;DHT22;28063;48.140;11.588;2023-03-01T10:35:51;3.40;83.90
42421;DHT22;28063;48.140;11.588;2023-03-01T10:38:18;3.60;83.80
42421;DHT22;28063;48.140;11.588;2023-03-01T10:40:59;3.70;82.60
42421;DHT22;28063;48.140;11.588;2023-03-01T10:46:32;3.80;82.30
42421;DHT22;28063;48.140;11.588;2023-03-01T10:49:22;3.60;81.50
42421;DHT22;28063;48.140;11.588;2023-03-01T10:51:53;3.30;81.00
42421;DHT22;28063;48.140;11.588;2023-03-01T10:54:28;3.20;81.70
42421;DHT22;28063;48.140;11.588;2023-03-01T10:56:57;3.10;82.40
42421;DHT22;28063;48.140;11.588;2023-03-01T10:59:33;3.20;82.60
42421;DHT22;28063;48.140;11.588;2023-03-01T11:02:33;3.50;83.90
42421;DHT22;28063;48.140;11.588;2023-03-01T11:07:56;4.20;81.70
42421;DHT22;28063;48.140;11.588;2023-03-01T11:10:33;4.40;80.60
42421;DHT22;28063;48.140;11.588;2023-03-01T11:13:17;4.40;79.40
42421;DHT22;28063;48.140;11.588;2023-03-01T11:16:07;4.60;79.00
42421;DHT22;28063;48.140;11.588;2023-03-01T11:18:35;4.80;78.30
42421;DHT22;28063;48.140;11.588;2023-03-01T11:21:01;4.90;78.10
42421;DHT22;28063;48.140;11.588;2023-03-01T11:23:29;5.10;77.10
42421;DHT22;28063;48.140;11.588;2023-03-01T11:25:58;5.10;75.50
42421;DHT22;28063;48.140;11.588;2023-03-01T11:28:28;5.00;76.50
42421;DHT22;28063;48.140;11.588;2023-03-01T11:31:00;4.90;76.50
42421;DHT22;28063;48.140;11.588;2023-03-01T11:36:30;5.00;76.50
42421;DHT22;28063;48.140;11.588;2023-03-01T11:39:12;4.70;75.70
42421;DHT22;28063;48.140;11.588;2023-03-01T11:41:49;4.60;77.40
42421;DHT22;28063;48.140;11.588;2023-03-01T11:44:23;4.70;78.40
42421;DHT22;28063;48.140;11.588;2023-03-01T11:52:24;5.20;76.50
42421;DHT22;28063;48.140;11.588;2023-03-01T11:55:17;5.20;75.00
42421;DHT22;28063;48.140;11.588;2023-03-01T12:03:23;5.00;77.10
42421;DHT22;28063;48.140;11.588;2023-03-01T12:15:07;5.90;75.10
42421;DHT22;28063;48.140;11.588;2023-03-01T12:20:32;6.00;74.80
42421;DHT22;28063;48.140;11.588;2023-03-01T12:25:55;6.20;73.00
42421;DHT22;28063;48.140;11.588;2023-03-01T12:40:27;6.80;71.70
42421;DHT22;28063;48.140;11.588;2023-03-01T12:46:32;6.30;71.90
42421;DHT22;28063;48.140;11.588;2023-03-01T12:51:14;6.20;72.60
42421;DHT22;28063;48.140;11.588;2023-03-01T12:53:42;6.10;73.10
42421;DHT22;28063;48.140;11.588;2023-03-01T12:56:15;6.10;73.90
42421;DHT22;28063;48.140;11.588;2023-03-01T12:59:15;6.30;73.20
42421;DHT22;28063;48.140;11.588;2023-03-01T13:08:15;6.40;72.00
42421;DHT22;28063;48.140;11.588;2023-03-01T13:10:53;6.30;73.60
42421;DHT22;28063;48.140;11.588;2023-03-01T13:13:23;6.30;72.70
42421;DHT22;28063;48.140;11.588;2023-03-01T13:15:50;6.30;73.30
42421;DHT22;28063;48.140;11.588;2023-03-01T13:23:28;6.70;73.20
42421;DHT22;28063;48.140;11.588;2023-03-01T13:26:16;6.80;72.10
42421;DHT22;28063;48.140;11.588;2023-03-01T13:34:00;6.70;72.50
42421;DHT22;28063;48.140;11.588;2023-03-01T13:46:51;7.60;70.70
42421;DHT22;28063;48.140;11.588;2023-03-01T13:49:21;7.60;69.40
42421;DHT22;28063;48.140;11.588;2023-03-01T13:51:49;7.70;69.30
42421;DHT22;28063;48.140;11.588;2023-03-01T13:54:18;7.70;69.00
42421;DHT22;28063;48.140;11.588;2023-03-01T13:56:46;7.60;69.50
42421;DHT22;28063;48.140;11.588;2023-03-01T13:59:22;7.60;68.50
42421;DHT22;28063;48.140;11.588;2023-03-01T14:01:55;7.50;69.60
42421;DHT22;28063;48.140;11.588;2023-03-01T14:04:29;7.40;70.00
42421;DHT22;28063;48.140;11.588;2023-03-01T14:07:19;7.30;70.00
42421;DHT22;28063;48.140;11.588;2023-03-01T14:09:47;7.30;70.70
42421;DHT22;28063;48.140;11.588;2023-03-01T14:12:39;7.30;70.40
42421;DHT22;28063;48.140;11.588;2023-03-01T14:18:22;7.40;70.60
42421;DHT22;28063;48.140;11.588;2023-03-01T14:20:51;7.50;70.80
42421;DHT22;28063;48.140;11.588;2023-03-01T14:23:22;7.60;70.70
42421;DHT22;28063;48.140;11.588;2023-03-01T14:25:49;7.60;69.30
42421;DHT22;28063;48.140;11.588;2023-03-01T14:28:29;7.40;69.90
42421;DHT22;28063;48.140;11.588;2023-03-01T14:30:59;7.40;71.00
42421;DHT22;28063;48.140;11.588;2023-03-01T14:33:34;7.50;71.10
42421;DHT22;28063;48.140;11.588;2023-03-01T14:36:05;7.50;70.40
42421;DHT22;28063;48.140;11.588;2023-03-01T14:38:46;7.40;70.70
42421;DHT22;28063;48.140;11.588;2023-03-01T14:41:20;7.40;70.80
42421;DHT22;28063;48.140;11.588;2023-03-01T14:43:50;7.30;71.00
42421;DHT22;28063;48.140;11.588;2023-03-01T14:46:35;7.30;71.20
42421;DHT22;28063;48.140;11.588;2023-03-01T14:49:10;7.30;71.80
42421;DHT22;28063;48.140;11.588;2023-03-01T14:51:42;7.30;71.90
42421;DHT22;28063;48.140;11.588;2023-03-01T14:57:12;7.10;72.70
42421;DHT22;28063;48.140;11.588;2023-03-01T14:59:38;7.20;73.30
42421;DHT22;28063;48.140;11.588;2023-03-01T15:02:08;7.20;73.00
42421;DHT22;28063;48.140;11.588;2023-03-01T15:04:37;7.10;73.20
42421;DHT22;28063;48.140;11.588;2023-03-01T15:07:03;7.10;73.60
42421;DHT22;28063;48.140;11.588;2023-03-01T15:09:32;7.10;74.00
42421;DHT22;28063;48.140;11.588;2023-03-01T15:14:57;7.40;73.70
42421;DHT22;28063;48.140;11.588;2023-03-01T15:17:36;7.40;72.80
42421;DHT22;28063;48.140;11.588;2023-03-01T15:20:06;7.40;73.30
42421;DHT22;28063;48.140;11.588;2023-03-01T15:22:32;7.30;73.20
42421;DHT22;28063;48.140;11.588;2023-03-01T15:24:58;7.20;73.60
42421;DHT22;28063;48.140;11.588;2023-03-01T15:27:25;7.10;73.60
42421;DHT22;28063;48.140;11.588;2023-03-01T15:29:55;7.10;74.00
42421;DHT22;28063;48.140;11.588;2023-03-01T15:32:25;6.90;74.40
42421;DHT22;28063;48.140;11.588;2023-03-01T15:34:52;6.80;75.00
42421;DHT22;28063;48.140;11.588;2023-03-01T15:38:22;6.80;75.20
42421;DHT22;28063;48.140;11.588;2023-03-01T15:40:50;6.60;75.70
42421;DHT22;28063;48.140;11.588;2023-03-01T15:43:44;6.60;76.10
42421;DHT22;28063;48.140;11.588;2023-03-01T15:46:34;6.50;76.70
42421;DHT22;28063;48.140;11.588;2023-03-01T15:49:05;6.40;77.00
42421;DHT22;28063;48.140;11.588;2023-03-01T15:51:43;6.40;77.40
42421;DHT22;28063;48.140;11.588;2023-03-01T15:54:20;6.30;77.80
42421;DHT22;28063;48.140;11.588;2023-03-01T15:56:47;6.30;78.20
42421;DHT22;28063;48.140;11.588;2023-03-01T15:59:13;6.30;78.50
42421;DHT22;28063;48.140;11.588;2023-03-01T16:01:40;6.30;78.80
42421;DHT22;28063;48.140;11.588;2023-03-01T16:04:06;6.30;79.00
42421;DHT22;28063;48.140;11.588;2023-03-01T16:06:31;6.20;79.20
42421;DHT22;28063;48.140;11.588;2023-03-01T16:08:57;6.20;79.60
42421;DHT22;28063;48.140;11.588;2023-03-01T16:11:23;6.20;79.90
42421;DHT22;28063;48.140;11.588;2023-03-01T16:13:49;6.20;80.10
42421;DHT22;28063;48.140;11.588;2023-03-01T16:16:16;6.10;80.30
42421;DHT22;28063;48.140;11.588;2023-03-01T16:18:43;6.10;80.60
42421;DHT22;28063;48.140;11.588;2023-03-01T16:21:22;6.10;80.80
42421;DHT22;28063;48.140;11.588;2023-03-01T16:23:48;6.00;81.20
42421;DHT22;28063;48.140;11.588;2023-03-01T16:26:14;6.00;81.40
42421;DHT22;28063;48.140;11.588;2023-03-01T16:28:43;5.90;81.60
42421;DHT22;28063;48.140;11.588;2023-03-01T16:31:09;5.90;81.90
42421;DHT22;28063;48.140;11.588;2023-03-01T16:33:35;5.80;82.20
42421;DHT22;28063;48.140;11.588;2023-03-01T16:36:07;5.80;82.70
42421;DHT22;28063;48.140;11.588;2023-03-01T16:38:33;5.70;83.00
42421;DHT22;28063;48.140;11.588;2023-03-01T16:41:00;5.70;83.40
42421;DHT22;28063;48.140;11.588;2023-03-01T16:43:26;5.60;83.60
42421;DHT22;28063;48.140;11.588;2023-03-01T16:45:51;5.60;83.90
42421;DHT22;28063;48.140;11.588;2023-03-01T16:48:17;5.50;84.20
42421;DHT22;28063;48.140;11.588;2023-03-01T16:50:43;5.50;84.60
42421;DHT22;28063;48.140;11.588;2023-03-01T16:53:09;5.40;85.00
42421;DHT22;28063;48.140;11.588;2023-03-01T16:55:35;5.30;85.40
42421;DHT22;28063;48.140;11.588;2023-03-01T16:58:01;5.30;85.70
42421;DHT22;28063;48.140;11.588;2023-03-01T17:00:27;5.20;86.20
42421;DHT22;28063;48.140;11.588;2023-03-01T17:02:53;5.20;86.70
42421;DHT22;28063;48.140;11.588;2023-03-01T17:05:19;5.20;87.00
42421;DHT22;28063;48.140;11.588;2023-03-01T17:07:46;5.10;87.30
42421;DHT22;28063;48.140;11.588;2023-03-01T17:10:12;5.00;88.30
42421;DHT22;28063;48.140;11.588;2023-03-01T17:12:38;5.00;88.00
42421;DHT22;28063;48.140;11.588;2023-03-01T17:15:05;4.90;88.40
42421;DHT22;28063;48.140;11.588;2023-03-01T17:17:30;4.90;88.80
42421;DHT22;28063;48.140;11.588;2023-03-01T17:19:56;4.90;89.10
42421;DHT22;28063;48.140;11.588;2023-03-01T17:22:22;4.80;89.40
42421;DHT22;28063;48.140;11.588;2023-03-01T17:24:48;4.80;89.80
42421;DHT22;28063;48.140;11.588;2023-03-01T17:27:14;4.70;90.00
42421;DHT22;28063;48.140;11.588;2023-03-01T17:29:41;4.70;90.20
42421;DHT22;28063;48.140;11.588;2023-03-01T17:32:07;4.70;90.40
42421;DHT22;28063;48.140;11.588;2023-03-01T17:34:33;4.60;90.40
42421;DHT22;28063;48.140;11.588;2023-03-01T17:36:59;4.40;90.40
42421;DHT22;28063;48.140;11.588;2023-03-01T17:39:25;4.30;90.60
42421;DHT22;28063;48.140;11.588;2023-03-01T17:41:55;4.20;90.70
42421;DHT22;28063;48.140;11.588;2023-03-01T17:44:21;4.20;90.90
42421;DHT22;28063;48.140;11.588;2023-03-01T17:46:46;4.10;91.00
42421;DHT22;28063;48.140;11.588;2023-03-01T17:49:12;3.90;91.00